sensor_id;sensor_type;location;lat;lon;timestamp;P1;durP1;ratioP1;P2;durP2;ratioP2
3689;SDS011;1861;50.240;8.596;2023-04-06T00:02:34;2.97;;;2.00;;
3689;SDS011;1861;50.240;8.596;2023-04-06T00:05:05;1.70;;;1.60;;
3689;SDS011;1861;50.240;8.596;2023-04-06T00:07:33;1.60;;;1.50;;
3689;SDS011;1861;50.240;8.596;2023-04-06T00:10:02;2.37;;;1.60;;
3689;SDS011;1861;50.240;8.596;2023-04-06T00:12:31;1.70;;;1.60;;
3689;SDS011;1861;50.240;8.596;2023-04-06T00:14:59;3.33;;;1.57;;
3689;SDS011;1861;50.240;8.596;2023-04-06T00:17:28;2.20;;;1.47;;
3689;SDS011;1861;50.240;8.596;2023-04-06T00:19:56;2.17;;;1.80;;
3689;SDS011;1861;50.240;8.596;2023-04-06T00:22:25;2.83;;;2.23;;
3689;SDS011;1861;50.240;8.596;2023-04-06T00:24:54;1.73;;;1.60;;
3689;SDS011;1861;50.240;8.596;2023-04-06T00:27:22;4.40;;;1.90;;
3689;SDS011;1861;50.240;8.596;2023-04-06T00:29:50;1.93;;;1.33;;
3689;SDS011;1861;50.240;8.596;2023-04-06T00:32:19;2.03;;;1.43;;
3689;SDS011;1861;50.240;8.596;2023-04-06T00:34:47;2.27;;;2.07;;
3689;SDS011;1861;50.240;8.596;2023-04-06T00:37:15;1.60;;;1.50;;
3689;SDS011;1861;50.240;8.596;2023-04-06T00:39:45;1.80;;;1.67;;
3689;SDS011;1861;50.240;8.596;2023-04-06T00:42:13;1.60;;;1.50;;
3689;SDS011;1861;50.240;8.596;2023-04-06T00:44:42;6.87;;;1.70;;
3689;SDS011;1861;50.240;8.596;2023-04-06T00:47:10;3.93;;;2.20;;
3689;SDS011;1861;50.240;8.596;2023-04-06T00:49:38;2.60;;;2.00;;
3689;SDS011;1861;50.240;8.596;2023-04-06T00:52:07;4.57;;;1.90;;
3689;SDS011;1861;50.240;8.596;2023-04-06T00:54:36;4.23;;;1.90;;
3689;SDS011;1861;50.240;8.596;2023-04-06T00:57:06;2.40;;;1.93;;
3689;SDS011;1861;50.240;8.596;2023-04-06T00:59:34;2.07;;;1.87;;
3689;SDS011;1861;50.240;8.596;2023-04-06T01:02:04;2.20;;;1.77;;
3689;SDS011;1861;50.240;8.596;2023-04-06T01:04:38;3.67;;;1.70;;
3689;SDS011;1861;50.240;8.596;2023-04-06T01:07:12;1.77;;;1.57;;
3689;SDS011;1861;50.240;8.596;2023-04-06T01:09:49;4.60;;;1.93;;
3689;SDS011;1861;50.240;8.596;2023-04-06T01:12:23;7.93;;;2.13;;
3689;SDS011;1861;50.240;8.596;2023-04-06T01:14:52;6.03;;;1.90;;
3689;SDS011;1861;50.240;8.596;2023-04-06T01:17:21;3.70;;;2.00;;
3689;SDS011;1861;50.240;8.596;2023-04-06T01:19:50;3.87;;;2.13;;
3689;SDS011;1861;50.240;8.596;2023-04-06T01:22:27;3.43;;;2.23;;
3689;SDS011;1861;50.240;8.596;2023-04-06T01:24:59;2.00;;;1.80;;
3689;SDS011;1861;50.240;8.596;2023-04-06T01:27:40;1.80;;;1.70;;
3689;SDS011;1861;50.240;8.596;2023-04-06T01:30:12;2.33;;;1.97;;
3689;SDS011;1861;50.240;8.596;2023-04-06T01:32:47;3.23;;;2.40;;
3689;SDS011;1861;50.240;8.596;2023-04-06T01:35:23;5.60;;;2.30;;
3689;SDS011;1861;50.240;8.596;2023-04-06T01:38:07;2.00;;;1.70;;
3689;SDS011;1861;50.240;8.596;2023-04-06T01:40:36;2.03;;;1.83;;
3689;SDS011;1861;50.240;8.596;2023-04-06T01:43:05;3.07;;;2.30;;
3689;SDS011;1861;50.240;8.596;2023-04-06T01:45:49;4.17;;;1.93;;
3689;SDS011;1861;50.240;8.596;2023-04-06T01:48:19;2.10;;;1.90;;
3689;SDS011;1861;50.240;8.596;2023-04-06T01:50:48;2.70;;;1.80;;
3689;SDS011;1861;50.240;8.596;2023-04-06T01:53:24;2.23;;;1.90;;
3689;SDS011;1861;50.240;8.596;2023-04-06T01:55:58;2.30;;;2.00;;
3689;SDS011;1861;50.240;8.596;2023-04-06T01:58:33;3.20;;;2.10;;
3689;SDS011;1861;50.240;8.596;2023-04-06T02:01:02;5.10;;;2.03;;
3689;SDS011;1861;50.240;8.596;2023-04-06T02:03:42;2.33;;;2.10;;
3689;SDS011;1861;50.240;8.596;2023-04-06T02:06:11;3.33;;;2.13;;
3689;SDS011;1861;50.240;8.596;2023-04-06T02:08:41;3.70;;;2.30;;
3689;SDS011;1861;50.240;8.596;2023-04-06T02:11:10;4.83;;;2.40;;
3689;SDS011;1861;50.240;8.596;2023-04-06T02:13:43;4.30;;;2.23;;
3689;SDS011;1861;50.240;8.596;2023-04-06T02:16:11;4.30;;;2.20;;
3689;SDS011;1861;50.240;8.596;2023-04-06T02:18:40;2.70;;;2.00;;
3689;SDS011;1861;50.240;8.596;2023-04-06T02:21:08;3.17;;;2.17;;
3689;SDS011;1861;50.240;8.596;2023-04-06T02:23:37;2.80;;;2.30;;
3689;SDS011;1861;50.240;8.596;2023-04-06T02:26:06;5.20;;;1.80;;
3689;SDS011;1861;50.240;8.596;2023-04-06T02:28:34;1.63;;;1.53;;
3689;SDS011;1861;50.240;8.596;2023-04-06T02:31:02;4.60;;;2.13;;
3689;SDS011;1861;50.240;8.596;2023-04-06T02:33:31;2.90;;;2.10;;
3689;SDS011;1861;50.240;8.596;2023-04-06T02:35:59;3.10;;;2.40;;
3689;SDS011;1861;50.240;8.596;2023-04-06T02:38:28;4.20;;;2.60;;
3689;SDS011;1861;50.240;8.596;2023-04-06T02:40:59;4.50;;;2.00;;
3689;SDS011;1861;50.240;8.596;2023-04-06T02:43:30;3.30;;;2.27;;
3689;SDS011;1861;50.240;8.596;2023-04-06T02:46:04;4.40;;;2.43;;
3689;SDS011;1861;50.240;8.596;2023-04-06T02:48:36;5.30;;;2.00;;
3689;SDS011;1861;50.240;8.596;2023-04-06T02:51:05;2.60;;;1.83;;
3689;SDS011;1861;50.240;8.596;2023-04-06T02:53:33;2.40;;;2.00;;
3689;SDS011;1861;50.240;8.596;2023-04-06T02:56:02;4.47;;;2.17;;
3689;SDS011;1861;50.240;8.596;2023-04-06T02:58:43;4.53;;;2.37;;
3689;SDS011;1861;50.240;8.596;2023-04-06T03:01:12;4.13;;;2.63;;
3689;SDS011;1861;50.240;8.596;2023-04-06T03:03:41;2.33;;;2.00;;
3689;SDS011;1861;50.240;8.596;2023-04-06T03:06:17;3.20;;;2.30;;
3689;SDS011;1861;50.240;8.596;2023-04-06T03:08:47;3.07;;;2.57;;
3689;SDS011;1861;50.240;8.596;2023-04-06T03:11:16;4.10;;;2.87;;
3689;SDS011;1861;50.240;8.596;2023-04-06T03:13:45;2.73;;;2.40;;
3689;SDS011;1861;50.240;8.596;2023-04-06T03:16:14;6.93;;;2.43;;
3689;SDS011;1861;50.240;8.596;2023-04-06T03:18:42;3.87;;;3.03;;
3689;SDS011;1861;50.240;8.596;2023-04-06T03:21:12;2.90;;;2.60;;
3689;SDS011;1861;50.240;8.596;2023-04-06T03:23:46;3.30;;;2.50;;
3689;SDS011;1861;50.240;8.596;2023-04-06T03:26:17;4.80;;;2.77;;
3689;SDS011;1861;50.240;8.596;2023-04-06T03:28:47;3.37;;;2.20;;
3689;SDS011;1861;50.240;8.596;2023-04-06T03:31:15;3.57;;;2.47;;
3689;SDS011;1861;50.240;8.596;2023-04-06T03:33:51;5.73;;;2.97;;
3689;SDS011;1861;50.240;8.596;2023-04-06T03:36:23;4.03;;;2.40;;
3689;SDS011;1861;50.240;8.596;2023-04-06T03:38:54;3.63;;;2.37;;
3689;SDS011;1861;50.240;8.596;2023-04-06T03:41:23;3.07;;;2.40;;
3689;SDS011;1861;50.240;8.596;2023-04-06T03:44:01;3.23;;;2.70;;
3689;SDS011;1861;50.240;8.596;2023-04-06T03:46:29;4.63;;;2.70;;
3689;SDS011;1861;50.240;8.596;2023-04-06T03:48:58;6.30;;;2.70;;
3689;SDS011;1861;50.240;8.596;2023-04-06T03:51:27;6.53;;;3.00;;
3689;SDS011;1861;50.240;8.596;2023-04-06T03:53:55;4.03;;;3.10;;
3689;SDS011;1861;50.240;8.596;2023-04-06T03:56:24;3.20;;;2.50;;
3689;SDS011;1861;50.240;8.596;2023-04-06T03:58:53;4.40;;;2.93;;
3689;SDS011;1861;50.240;8.596;2023-04-06T04:01:23;6.10;;;3.17;;
3689;SDS011;1861;50.240;8.596;2023-04-06T04:03:51;4.57;;;3.23;;
3689;SDS011;1861;50.240;8.596;2023-04-06T04:06:19;4.90;;;2.90;;
3689;SDS011;1861;50.240;8.596;2023-04-06T04:08:48;2.90;;;2.60;;
3689;SDS011;1861;50.240;8.596;2023-04-06T04:11:16;4.20;;;3.33;;
3689;SDS011;1861;50.240;8.596;2023-04-06T04:13:49;5.73;;;2.77;;
3689;SDS011;1861;50.240;8.596;2023-04-06T04:16:17;5.50;;;3.43;;
3689;SDS011;1861;50.240;8.596;2023-04-06T04:18:46;6.70;;;3.30;;
3689;SDS011;1861;50.240;8.596;2023-04-06T04:21:15;3.80;;;3.23;;
3689;SDS011;1861;50.240;8.596;2023-04-06T04:23:43;3.20;;;2.63;;
3689;SDS011;1861;50.240;8.596;2023-04-06T04:26:12;5.50;;;3.37;;
3689;SDS011;1861;50.240;8.596;2023-04-06T04:28:43;4.40;;;3.13;;
3689;SDS011;1861;50.240;8.596;2023-04-06T04:31:13;3.73;;;3.23;;
3689;SDS011;1861;50.240;8.596;2023-04-06T04:33:48;4.20;;;3.10;;
3689;SDS011;1861;50.240;8.596;2023-04-06T04:36:23;5.87;;;3.33;;
3689;SDS011;1861;50.240;8.596;2023-04-06T04:38:55;6.17;;;3.90;;
3689;SDS011;1861;50.240;8.596;2023-04-06T04:41:24;5.17;;;3.00;;
3689;SDS011;1861;50.240;8.596;2023-04-06T04:43:53;3.53;;;3.07;;
3689;SDS011;1861;50.240;8.596;2023-04-06T04:46:23;3.80;;;2.70;;
3689;SDS011;1861;50.240;8.596;2023-04-06T04:48:54;5.63;;;3.27;;
3689;SDS011;1861;50.240;8.596;2023-04-06T04:51:23;4.23;;;3.00;;
3689;SDS011;1861;50.240;8.596;2023-04-06T04:54:05;3.93;;;3.10;;
3689;SDS011;1861;50.240;8.596;2023-04-06T04:56:34;6.70;;;3.10;;
3689;SDS011;1861;50.240;8.596;2023-04-06T04:59:27;4.40;;;3.47;;
3689;SDS011;1861;50.240;8.596;2023-04-06T05:02:05;4.87;;;3.27;;
3689;SDS011;1861;50.240;8.596;2023-04-06T05:04:44;4.77;;;3.63;;
3689;SDS011;1861;50.240;8.596;2023-04-06T05:07:18;3.37;;;2.97;;
3689;SDS011;1861;50.240;8.596;2023-04-06T05:09:48;7.53;;;3.50;;
3689;SDS011;1861;50.240;8.596;2023-04-06T05:12:18;4.07;;;3.13;;
3689;SDS011;1861;50.240;8.596;2023-04-06T05:14:57;4.67;;;3.60;;
3689;SDS011;1861;50.240;8.596;2023-04-06T05:17:26;6.37;;;3.43;;
3689;SDS011;1861;50.240;8.596;2023-04-06T05:19:56;3.87;;;2.97;;
3689;SDS011;1861;50.240;8.596;2023-04-06T05:22:26;4.30;;;3.13;;
3689;SDS011;1861;50.240;8.596;2023-04-06T05:25:01;4.90;;;3.00;;
3689;SDS011;1861;50.240;8.596;2023-04-06T05:27:30;6.43;;;3.87;;
3689;SDS011;1861;50.240;8.596;2023-04-06T05:30:03;8.60;;;4.20;;
3689;SDS011;1861;50.240;8.596;2023-04-06T05:32:38;6.37;;;3.70;;
3689;SDS011;1861;50.240;8.596;2023-04-06T05:35:08;5.20;;;3.37;;
3689;SDS011;1861;50.240;8.596;2023-04-06T05:37:37;5.30;;;4.10;;
3689;SDS011;1861;50.240;8.596;2023-04-06T05:40:07;6.73;;;3.40;;
3689;SDS011;1861;50.240;8.596;2023-04-06T05:42:36;5.53;;;3.40;;
3689;SDS011;1861;50.240;8.596;2023-04-06T05:45:06;9.57;;;4.10;;
3689;SDS011;1861;50.240;8.596;2023-04-06T05:47:34;9.73;;;4.10;;
3689;SDS011;1861;50.240;8.596;2023-04-06T05:50:18;7.07;;;4.17;;
3689;SDS011;1861;50.240;8.596;2023-04-06T05:52:46;4.80;;;3.30;;
3689;SDS011;1861;50.240;8.596;2023-04-06T05:55:18;5.97;;;4.20;;
3689;SDS011;1861;50.240;8.596;2023-04-06T05:57:52;4.30;;;3.87;;
3689;SDS011;1861;50.240;8.596;2023-04-06T06:00:21;5.90;;;3.73;;
3689;SDS011;1861;50.240;8.596;2023-04-06T06:02:59;4.47;;;3.67;;
3689;SDS011;1861;50.240;8.596;2023-04-06T06:05:32;11.47;;;4.90;;
3689;SDS011;1861;50.240;8.596;2023-04-06T06:08:07;5.30;;;3.80;;
3689;SDS011;1861;50.240;8.596;2023-04-06T06:10:37;6.97;;;4.00;;
3689;SDS011;1861;50.240;8.596;2023-04-06T06:13:08;4.43;;;3.80;;
3689;SDS011;1861;50.240;8.596;2023-04-06T06:15:37;12.30;;;4.07;;
3689;SDS011;1861;50.240;8.596;2023-04-06T06:18:06;8.67;;;5.33;;
3689;SDS011;1861;50.240;8.596;2023-04-06T06:20:36;10.20;;;4.63;;
3689;SDS011;1861;50.240;8.596;2023-04-06T06:23:05;7.90;;;5.17;;
3689;SDS011;1861;50.240;8.596;2023-04-06T06:25:34;6.50;;;4.80;;
3689;SDS011;1861;50.240;8.596;2023-04-06T06:28:03;9.57;;;5.53;;
3689;SDS011;1861;50.240;8.596;2023-04-06T06:30:32;6.60;;;4.90;;
3689;SDS011;1861;50.240;8.596;2023-04-06T06:33:00;7.43;;;4.83;;
3689;SDS011;1861;50.240;8.596;2023-04-06T06:35:29;6.90;;;5.27;;
3689;SDS011;1861;50.240;8.596;2023-04-06T06:38:03;8.53;;;5.50;;
3689;SDS011;1861;50.240;8.596;2023-04-06T06:40:32;10.10;;;5.80;;
3689;SDS011;1861;50.240;8.596;2023-04-06T06:43:01;7.43;;;5.60;;
3689;SDS011;1861;50.240;8.596;2023-04-06T06:45:55;8.90;;;5.30;;
3689;SDS011;1861;50.240;8.596;2023-04-06T06:48:25;9.87;;;5.53;;
3689;SDS011;1861;50.240;8.596;2023-04-06T06:50:53;13.70;;;5.60;;
3689;SDS011;1861;50.240;8.596;2023-04-06T06:53:23;9.60;;;5.50;;
3689;SDS011;1861;50.240;8.596;2023-04-06T06:55:52;8.97;;;5.60;;
3689;SDS011;1861;50.240;8.596;2023-04-06T06:58:20;12.10;;;5.83;;
3689;SDS011;1861;50.240;8.596;2023-04-06T07:00:48;9.87;;;5.67;;
3689;SDS011;1861;50.240;8.596;2023-04-06T07:03:17;10.80;;;6.07;;
3689;SDS011;1861;50.240;8.596;2023-04-06T07:05:45;13.20;;;6.50;;
3689;SDS011;1861;50.240;8.596;2023-04-06T07:08:16;14.60;;;6.23;;
3689;SDS011;1861;50.240;8.596;2023-04-06T07:10:46;8.30;;;6.03;;
3689;SDS011;1861;50.240;8.596;2023-04-06T07:13:14;12.80;;;6.97;;
3689;SDS011;1861;50.240;8.596;2023-04-06T07:15:47;15.80;;;6.87;;
3689;SDS011;1861;50.240;8.596;2023-04-06T07:18:16;17.03;;;6.87;;
3689;SDS011;1861;50.240;8.596;2023-04-06T07:20:45;11.40;;;7.50;;
3689;SDS011;1861;50.240;8.596;2023-04-06T07:23:14;17.40;;;7.43;;
3689;SDS011;1861;50.240;8.596;2023-04-06T07:25:44;12.30;;;7.30;;
3689;SDS011;1861;50.240;8.596;2023-04-06T07:28:13;17.87;;;8.17;;
3689;SDS011;1861;50.240;8.596;2023-04-06T07:30:42;11.57;;;7.00;;
3689;SDS011;1861;50.240;8.596;2023-04-06T07:33:11;13.00;;;7.50;;
3689;SDS011;1861;50.240;8.596;2023-04-06T07:35:40;12.90;;;7.40;;
3689;SDS011;1861;50.240;8.596;2023-04-06T07:38:09;19.73;;;7.67;;
3689;SDS011;1861;50.240;8.596;2023-04-06T07:40:39;13.43;;;7.80;;
3689;SDS011;1861;50.240;8.596;2023-04-06T07:43:08;10.73;;;7.33;;
3689;SDS011;1861;50.240;8.596;2023-04-06T07:45:37;13.50;;;7.90;;
3689;SDS011;1861;50.240;8.596;2023-04-06T07:48:05;11.77;;;7.60;;
3689;SDS011;1861;50.240;8.596;2023-04-06T07:50:34;13.60;;;7.87;;
3689;SDS011;1861;50.240;8.596;2023-04-06T07:53:03;14.23;;;7.63;;
3689;SDS011;1861;50.240;8.596;2023-04-06T07:55:33;15.70;;;8.40;;
3689;SDS011;1861;50.240;8.596;2023-04-06T07:58:01;13.70;;;8.03;;
3689;SDS011;1861;50.240;8.596;2023-04-06T08:00:30;19.93;;;7.83;;
3689;SDS011;1861;50.240;8.596;2023-04-06T08:02:59;13.50;;;7.97;;
3689;SDS011;1861;50.240;8.596;2023-04-06T08:05:27;13.43;;;8.10;;
3689;SDS011;1861;50.240;8.596;2023-04-06T08:07:55;17.73;;;8.80;;
3689;SDS011;1861;50.240;8.596;2023-04-06T08:10:24;13.53;;;7.83;;
3689;SDS011;1861;50.240;8.596;2023-04-06T08:12:52;15.90;;;9.00;;
3689;SDS011;1861;50.240;8.596;2023-04-06T08:15:20;11.50;;;7.43;;
3689;SDS011;1861;50.240;8.596;2023-04-06T08:17:50;15.53;;;7.80;;
3689;SDS011;1861;50.240;8.596;2023-04-06T08:20:18;12.33;;;7.40;;
3689;SDS011;1861;50.240;8.596;2023-04-06T08:22:46;11.63;;;7.77;;
3689;SDS011;1861;50.240;8.596;2023-04-06T08:25:17;16.33;;;7.80;;
3689;SDS011;1861;50.240;8.596;2023-04-06T08:27:46;12.03;;;8.20;;
3689;SDS011;1861;50.240;8.596;2023-04-06T08:30:14;14.73;;;8.00;;
3689;SDS011;1861;50.240;8.596;2023-04-06T08:32:42;10.93;;;7.63;;
3689;SDS011;1861;50.240;8.596;2023-04-06T08:35:12;14.37;;;8.23;;
3689;SDS011;1861;50.240;8.596;2023-04-06T08:37:40;14.60;;;7.70;;
3689;SDS011;1861;50.240;8.596;2023-04-06T08:40:08;14.33;;;8.33;;
3689;SDS011;1861;50.240;8.596;2023-04-06T08:42:39;15.13;;;8.33;;
3689;SDS011;1861;50.240;8.596;2023-04-06T08:45:11;15.73;;;7.40;;
3689;SDS011;1861;50.240;8.596;2023-04-06T08:47:40;11.37;;;7.90;;
3689;SDS011;1861;50.240;8.596;2023-04-06T08:50:09;16.43;;;7.63;;
3689;SDS011;1861;50.240;8.596;2023-04-06T08:52:39;13.70;;;8.23;;
3689;SDS011;1861;50.240;8.596;2023-04-06T08:55:09;12.50;;;7.40;;
3689;SDS011;1861;50.240;8.596;2023-04-06T08:57:37;13.63;;;8.63;;
3689;SDS011;1861;50.240;8.596;2023-04-06T09:00:07;12.43;;;7.83;;
3689;SDS011;1861;50.240;8.596;2023-04-06T09:02:38;12.50;;;7.40;;
3689;SDS011;1861;50.240;8.596;2023-04-06T09:05:08;13.40;;;7.87;;
3689;SDS011;1861;50.240;8.596;2023-04-06T09:07:38;14.50;;;8.77;;
3689;SDS011;1861;50.240;8.596;2023-04-06T09:10:07;12.80;;;7.50;;
3689;SDS011;1861;50.240;8.596;2023-04-06T09:12:36;13.97;;;7.97;;
3689;SDS011;1861;50.240;8.596;2023-04-06T09:15:04;10.93;;;7.23;;
3689;SDS011;1861;50.240;8.596;2023-04-06T09:17:33;12.97;;;7.60;;
3689;SDS011;1861;50.240;8.596;2023-04-06T09:20:03;13.60;;;7.37;;
3689;SDS011;1861;50.240;8.596;2023-04-06T09:22:35;9.80;;;7.20;;
3689;SDS011;1861;50.240;8.596;2023-04-06T09:25:06;15.63;;;7.77;;
3689;SDS011;1861;50.240;8.596;2023-04-06T09:27:36;11.23;;;7.07;;
3689;SDS011;1861;50.240;8.596;2023-04-06T09:30:05;12.53;;;8.00;;
3689;SDS011;1861;50.240;8.596;2023-04-06T09:32:45;12.20;;;7.87;;
3689;SDS011;1861;50.240;8.596;2023-04-06T09:35:15;13.53;;;7.93;;
3689;SDS011;1861;50.240;8.596;2023-04-06T09:37:46;14.63;;;9.13;;
3689;SDS011;1861;50.240;8.596;2023-04-06T09:40:16;16.00;;;8.10;;
3689;SDS011;1861;50.240;8.596;2023-04-06T09:42:45;12.20;;;7.10;;
3689;SDS011;1861;50.240;8.596;2023-04-06T09:45:14;14.83;;;8.60;;
3689;SDS011;1861;50.240;8.596;2023-04-06T09:47:43;14.97;;;7.80;;
3689;SDS011;1861;50.240;8.596;2023-04-06T09:50:13;14.67;;;8.40;;
3689;SDS011;1861;50.240;8.596;2023-04-06T09:52:47;16.60;;;9.10;;
3689;SDS011;1861;50.240;8.596;2023-04-06T09:55:20;14.57;;;8.13;;
3689;SDS011;1861;50.240;8.596;2023-04-06T09:57:53;12.43;;;8.20;;
3689;SDS011;1861;50.240;8.596;2023-04-06T10:00:25;14.33;;;7.33;;
3689;SDS011;1861;50.240;8.596;2023-04-06T10:02:56;13.37;;;7.37;;
3689;SDS011;1861;50.240;8.596;2023-04-06T10:05:33;18.70;;;7.80;;
3689;SDS011;1861;50.240;8.596;2023-04-06T10:08:06;13.47;;;7.60;;
3689;SDS011;1861;50.240;8.596;2023-04-06T10:10:37;12.53;;;7.53;;
3689;SDS011;1861;50.240;8.596;2023-04-06T10:13:06;13.47;;;7.33;;
3689;SDS011;1861;50.240;8.596;2023-04-06T10:15:35;15.10;;;7.83;;
3689;SDS011;1861;50.240;8.596;2023-04-06T10:18:06;14.07;;;8.13;;
3689;SDS011;1861;50.240;8.596;2023-04-06T10:20:35;11.50;;;6.87;;
3689;SDS011;1861;50.240;8.596;2023-04-06T10:23:09;13.30;;;7.40;;
3689;SDS011;1861;50.240;8.596;2023-04-06T10:25:52;16.57;;;7.83;;
3689;SDS011;1861;50.240;8.596;2023-04-06T10:28:22;14.20;;;7.47;;
3689;SDS011;1861;50.240;8.596;2023-04-06T10:30:56;13.87;;;7.43;;
3689;SDS011;1861;50.240;8.596;2023-04-06T10:33:25;12.60;;;6.97;;
3689;SDS011;1861;50.240;8.596;2023-04-06T10:35:54;22.33;;;7.90;;
3689;SDS011;1861;50.240;8.596;2023-04-06T10:38:33;14.27;;;6.90;;
3689;SDS011;1861;50.240;8.596;2023-04-06T10:41:08;13.80;;;7.70;;
3689;SDS011;1861;50.240;8.596;2023-04-06T10:43:38;13.77;;;6.97;;
3689;SDS011;1861;50.240;8.596;2023-04-06T10:46:08;10.30;;;6.27;;
3689;SDS011;1861;50.240;8.596;2023-04-06T10:48:38;13.33;;;7.70;;
3689;SDS011;1861;50.240;8.596;2023-04-06T10:51:08;17.63;;;7.93;;
3689;SDS011;1861;50.240;8.596;2023-04-06T10:53:37;10.50;;;6.50;;
3689;SDS011;1861;50.240;8.596;2023-04-06T10:56:10;12.07;;;7.10;;
3689;SDS011;1861;50.240;8.596;2023-04-06T10:58:43;14.67;;;6.90;;
3689;SDS011;1861;50.240;8.596;2023-04-06T11:01:13;13.00;;;6.60;;
3689;SDS011;1861;50.240;8.596;2023-04-06T11:03:43;15.80;;;7.60;;
3689;SDS011;1861;50.240;8.596;2023-04-06T11:06:17;13.70;;;7.33;;
3689;SDS011;1861;50.240;8.596;2023-04-06T11:08:47;12.20;;;7.20;;
3689;SDS011;1861;50.240;8.596;2023-04-06T11:11:17;11.67;;;6.43;;
3689;SDS011;1861;50.240;8.596;2023-04-06T11:13:48;17.03;;;6.47;;
3689;SDS011;1861;50.240;8.596;2023-04-06T11:16:18;13.23;;;7.60;;
3689;SDS011;1861;50.240;8.596;2023-04-06T11:18:48;10.47;;;6.17;;
3689;SDS011;1861;50.240;8.596;2023-04-06T11:21:17;17.23;;;6.63;;
3689;SDS011;1861;50.240;8.596;2023-04-06T11:23:46;12.37;;;5.80;;
3689;SDS011;1861;50.240;8.596;2023-04-06T11:26:14;14.57;;;7.57;;
3689;SDS011;1861;50.240;8.596;2023-04-06T11:28:44;14.50;;;7.43;;
3689;SDS011;1861;50.240;8.596;2023-04-06T11:31:12;14.00;;;6.40;;
3689;SDS011;1861;50.240;8.596;2023-04-06T11:33:40;11.10;;;7.27;;
3689;SDS011;1861;50.240;8.596;2023-04-06T11:36:09;13.77;;;7.07;;
3689;SDS011;1861;50.240;8.596;2023-04-06T11:38:38;17.40;;;7.77;;
3689;SDS011;1861;50.240;8.596;2023-04-06T11:41:07;13.00;;;7.50;;
3689;SDS011;1861;50.240;8.596;2023-04-06T11:43:35;13.90;;;7.57;;
3689;SDS011;1861;50.240;8.596;2023-04-06T11:46:05;13.00;;;8.17;;
3689;SDS011;1861;50.240;8.596;2023-04-06T11:48:43;10.30;;;5.93;;
3689;SDS011;1861;50.240;8.596;2023-04-06T11:51:11;15.40;;;8.20;;
3689;SDS011;1861;50.240;8.596;2023-04-06T11:53:43;14.20;;;8.00;;
3689;SDS011;1861;50.240;8.596;2023-04-06T11:56:22;9.60;;;5.80;;
3689;SDS011;1861;50.240;8.596;2023-04-06T11:58:54;13.97;;;7.03;;
3689;SDS011;1861;50.240;8.596;2023-04-06T12:01:26;17.50;;;8.20;;
3689;SDS011;1861;50.240;8.596;2023-04-06T12:03:54;19.43;;;7.17;;
3689;SDS011;1861;50.240;8.596;2023-04-06T12:06:22;14.30;;;6.10;;
3689;SDS011;1861;50.240;8.596;2023-04-06T12:08:51;14.37;;;6.90;;
3689;SDS011;1861;50.240;8.596;2023-04-06T12:11:20;20.47;;;8.30;;
3689;SDS011;1861;50.240;8.596;2023-04-06T12:13:48;16.20;;;7.77;;
3689;SDS011;1861;50.240;8.596;2023-04-06T12:16:16;11.17;;;5.83;;
3689;SDS011;1861;50.240;8.596;2023-04-06T12:18:47;13.77;;;5.90;;
3689;SDS011;1861;50.240;8.596;2023-04-06T12:21:15;13.83;;;6.90;;
3689;SDS011;1861;50.240;8.596;2023-04-06T12:23:43;20.83;;;7.37;;
3689;SDS011;1861;50.240;8.596;2023-04-06T12:26:11;15.30;;;7.27;;
3689;SDS011;1861;50.240;8.596;2023-04-06T12:28:40;13.43;;;7.07;;
3689;SDS011;1861;50.240;8.596;2023-04-06T12:31:13;9.70;;;5.97;;
3689;SDS011;1861;50.240;8.596;2023-04-06T12:33:43;14.20;;;7.43;;
3689;SDS011;1861;50.240;8.596;2023-04-06T12:36:15;13.17;;;7.27;;
3689;SDS011;1861;50.240;8.596;2023-04-06T12:38:46;15.03;;;7.23;;
3689;SDS011;1861;50.240;8.596;2023-04-06T12:41:15;11.43;;;5.80;;
3689;SDS011;1861;50.240;8.596;2023-04-06T12:43:43;17.63;;;7.13;;
3689;SDS011;1861;50.240;8.596;2023-04-06T12:46:12;17.90;;;7.30;;
3689;SDS011;1861;50.240;8.596;2023-04-06T12:48:40;11.60;;;5.60;;
3689;SDS011;1861;50.240;8.596;2023-04-06T12:51:08;18.00;;;5.60;;
3689;SDS011;1861;50.240;8.596;2023-04-06T12:53:38;12.80;;;5.90;;
3689;SDS011;1861;50.240;8.596;2023-04-06T12:56:10;10.70;;;6.23;;
3689;SDS011;1861;50.240;8.596;2023-04-06T12:58:40;14.37;;;6.63;;
3689;SDS011;1861;50.240;8.596;2023-04-06T13:01:09;18.70;;;7.53;;
3689;SDS011;1861;50.240;8.596;2023-04-06T13:03:39;15.27;;;6.67;;
3689;SDS011;1861;50.240;8.596;2023-04-06T13:06:08;16.40;;;7.17;;
3689;SDS011;1861;50.240;8.596;2023-04-06T13:08:38;15.60;;;7.00;;
3689;SDS011;1861;50.240;8.596;2023-04-06T13:11:07;12.47;;;6.63;;
3689;SDS011;1861;50.240;8.596;2023-04-06T13:13:36;12.67;;;6.73;;
3689;SDS011;1861;50.240;8.596;2023-04-06T13:16:05;11.10;;;6.10;;
3689;SDS011;1861;50.240;8.596;2023-04-06T13:18:35;12.07;;;6.57;;
3689;SDS011;1861;50.240;8.596;2023-04-06T13:21:05;13.20;;;6.67;;
3689;SDS011;1861;50.240;8.596;2023-04-06T13:23:34;9.67;;;5.93;;
3689;SDS011;1861;50.240;8.596;2023-04-06T13:26:04;14.70;;;7.00;;
3689;SDS011;1861;50.240;8.596;2023-04-06T13:28:34;15.97;;;6.77;;
3689;SDS011;1861;50.240;8.596;2023-04-06T13:31:04;12.10;;;6.90;;
3689;SDS011;1861;50.240;8.596;2023-04-06T13:33:33;13.67;;;7.70;;
3689;SDS011;1861;50.240;8.596;2023-04-06T13:36:02;19.67;;;8.20;;
3689;SDS011;1861;50.240;8.596;2023-04-06T13:38:30;15.00;;;7.17;;
3689;SDS011;1861;50.240;8.596;2023-04-06T13:41:00;16.00;;;7.23;;
3689;SDS011;1861;50.240;8.596;2023-04-06T13:43:29;11.70;;;5.50;;
3689;SDS011;1861;50.240;8.596;2023-04-06T13:45:57;12.03;;;6.87;;
3689;SDS011;1861;50.240;8.596;2023-04-06T13:48:27;11.77;;;6.40;;
3689;SDS011;1861;50.240;8.596;2023-04-06T13:50:55;13.03;;;6.30;;
3689;SDS011;1861;50.240;8.596;2023-04-06T13:53:25;11.30;;;5.83;;
3689;SDS011;1861;50.240;8.596;2023-04-06T13:55:53;12.00;;;5.27;;
3689;SDS011;1861;50.240;8.596;2023-04-06T13:58:21;11.27;;;6.53;;
3689;SDS011;1861;50.240;8.596;2023-04-06T14:00:51;10.67;;;5.90;;
3689;SDS011;1861;50.240;8.596;2023-04-06T14:03:20;11.07;;;6.33;;
3689;SDS011;1861;50.240;8.596;2023-04-06T14:05:49;10.20;;;6.07;;
3689;SDS011;1861;50.240;8.596;2023-04-06T14:08:17;13.17;;;6.90;;
3689;SDS011;1861;50.240;8.596;2023-04-06T14:10:46;12.03;;;6.40;;
3689;SDS011;1861;50.240;8.596;2023-04-06T14:13:14;11.50;;;5.90;;
3689;SDS011;1861;50.240;8.596;2023-04-06T14:15:43;12.20;;;5.97;;
3689;SDS011;1861;50.240;8.596;2023-04-06T14:18:12;10.70;;;6.00;;
3689;SDS011;1861;50.240;8.596;2023-04-06T14:20:41;10.00;;;5.70;;
3689;SDS011;1861;50.240;8.596;2023-04-06T14:23:10;13.57;;;5.87;;
3689;SDS011;1861;50.240;8.596;2023-04-06T14:25:38;12.20;;;6.20;;
3689;SDS011;1861;50.240;8.596;2023-04-06T14:28:06;11.80;;;6.27;;
3689;SDS011;1861;50.240;8.596;2023-04-06T14:30:34;13.93;;;5.37;;
3689;SDS011;1861;50.240;8.596;2023-04-06T14:33:03;8.73;;;5.57;;
3689;SDS011;1861;50.240;8.596;2023-04-06T14:35:33;10.53;;;6.30;;
3689;SDS011;1861;50.240;8.596;2023-04-06T14:38:01;12.10;;;6.57;;
3689;SDS011;1861;50.240;8.596;2023-04-06T14:40:29;12.17;;;6.50;;
3689;SDS011;1861;50.240;8.596;2023-04-06T14:42:57;11.10;;;6.10;;
3689;SDS011;1861;50.240;8.596;2023-04-06T14:45:25;9.90;;;5.57;;
3689;SDS011;1861;50.240;8.596;2023-04-06T14:47:53;10.87;;;5.63;;
3689;SDS011;1861;50.240;8.596;2023-04-06T14:50:21;12.43;;;5.40;;
3689;SDS011;1861;50.240;8.596;2023-04-06T14:52:51;11.07;;;5.70;;
3689;SDS011;1861;50.240;8.596;2023-04-06T14:55:19;10.50;;;5.00;;
3689;SDS011;1861;50.240;8.596;2023-04-06T14:57:47;16.60;;;6.30;;
3689;SDS011;1861;50.240;8.596;2023-04-06T15:00:15;12.17;;;6.27;;
3689;SDS011;1861;50.240;8.596;2023-04-06T15:02:44;12.53;;;5.70;;
3689;SDS011;1861;50.240;8.596;2023-04-06T15:05:12;8.03;;;5.27;;
3689;SDS011;1861;50.240;8.596;2023-04-06T15:07:40;10.50;;;5.20;;
3689;SDS011;1861;50.240;8.596;2023-04-06T15:10:10;8.57;;;5.20;;
3689;SDS011;1861;50.240;8.596;2023-04-06T15:12:38;8.00;;;4.43;;
3689;SDS011;1861;50.240;8.596;2023-04-06T15:15:07;8.70;;;5.50;;
3689;SDS011;1861;50.240;8.596;2023-04-06T15:17:36;14.00;;;6.20;;
3689;SDS011;1861;50.240;8.596;2023-04-06T15:20:04;14.53;;;5.30;;
3689;SDS011;1861;50.240;8.596;2023-04-06T15:22:33;11.30;;;5.60;;
3689;SDS011;1861;50.240;8.596;2023-04-06T15:25:03;10.20;;;5.03;;
3689;SDS011;1861;50.240;8.596;2023-04-06T15:27:33;15.17;;;6.00;;